Time,TemperatureF,DewpointF,PressureIn,WindDirection,WindDirectionDegrees,WindSpeedMPH,WindSpeedGustMPH,Humidity,HourlyPrecipIn,Conditions,Clouds,dailyrainin,SoftwareType,DateUTC
2013-01-17 00:09:00,77.2,70.0,0.00,ESE,112,0.0,5.0,78,0.00,,,0.00,weatherlink.com 1.10,2013-01-17 06:09:00,
2013-01-17 00:24:00,75.8,70.0,0.00,ESE,117,2.0,3.0,81,0.00,,,0.00,weatherlink.com 1.10,2013-01-17 06:24:00,
2013-01-17 00:39:00,73.1,68.0,0.00,East,94,2.0,4.0,85,0.00,,,0.00,weatherlink.com 1.10,2013-01-17 06:39:00,
2013-01-17 00:54:00,72.4,68.0,0.00,ESE,113,3.0,3.0,86,0.00,,,0.00,weatherlink.com 1.10,2013-01-17 06:54:00,
2013-01-17 01:09:00,71.4,68.0,0.00,ESE,115,4.0,5.0,88,0.00,,,0.00,weatherlink.com 1.10,2013-01-17 07:09:00,
2013-01-17 01:24:00,71.0,68.0,0.00,ESE,121,3.0,6.0,89,0.00,,,0.00,weatherlink.com 1.10,2013-01-17 07:24:00,
2013-01-17 01:39:00,70.7,68.0,0.00,ESE,118,4.0,7.0,90,0.00,,,0.00,weatherlink.com 1.10,2013-01-17 07:39:00,
2013-01-17 01:54:00,71.1,68.0,0.00,SE,127,5.0,7.0,90,0.00,,,0.00,weatherlink.com 1.10,2013-01-17 07:54:00,
2013-01-17 02:09:00,71.2,68.0,0.00,SE,138,5.0,8.0,90,0.00,,,0.00,weatherlink.com 1.10,2013-01-17 08:09:00,
2013-01-17 02:24:00,71.1,68.0,0.00,SE,127,6.0,8.0,89,0.00,,,0.00,weatherlink.com 1.10,2013-01-17 08:24:00,
2013-01-17 02:39:00,71.5,68.0,0.00,SE,141,5.0,7.0,89,0.00,,,0.00,weatherlink.com 1.10,2013-01-17 08:39:00,
2013-01-17 02:55:00,71.6,68.0,0.00,SE,141,4.0,7.0,89,0.00,,,0.00,weatherlink.com 1.10,2013-01-17 08:55:00,
2013-01-17 03:10:00,70.8,68.0,0.00,SE,141,5.0,6.0,90,0.00,,,0.00,weatherlink.com 1.10,2013-01-17 09:10:00,
2013-01-17 03:25:00,71.3,68.0,0.00,SE,132,5.0,6.0,90,0.00,,,0.00,weatherlink.com 1.10,2013-01-17 09:25:00,
2013-01-17 03:40:00,71.1,68.0,0.00,SE,134,3.0,8.0,90,0.00,,,0.00,weatherlink.com 1.10,2013-01-17 09:40:00,
2013-01-17 03:55:00,71.3,68.0,0.00,SE,134,4.0,7.0,90,0.00,,,0.00,weatherlink.com 1.10,2013-01-17 09:55:00,
2013-01-17 04:10:00,71.6,68.0,0.00,SE,126,5.0,7.0,88,0.00,,,0.00,weatherlink.com 1.10,2013-01-17 10:10:00,
2013-01-17 04:25:00,69.4,66.0,0.00,ESE,103,7.0,10.0,88,0.00,,,0.00,weatherlink.com 1.10,2013-01-17 10:25:00,
2013-01-17 04:40:00,68.3,66.0,0.00,SE,125,6.0,10.0,91,0.00,,,0.00,weatherlink.com 1.10,2013-01-17 10:40:00,
2013-01-17 04:55:00,67.6,65.0,0.00,East,91,7.0,9.0,92,0.00,,,0.00,weatherlink.com 1.10,2013-01-17 10:55:00,
2013-01-17 05:10:00,67.4,65.0,0.00,East,96,7.0,9.0,93,0.00,,,0.00,weatherlink.com 1.10,2013-01-17 11:10:00,
2013-01-17 05:25:00,67.9,66.0,0.00,ESE,114,7.0,8.0,92,0.00,,,0.00,weatherlink.com 1.10,2013-01-17 11:25:00,
2013-01-17 05:40:00,67.7,66.0,0.00,ESE,112,9.0,11.0,93,0.00,,,0.00,weatherlink.com 1.10,2013-01-17 11:40:00,
2013-01-17 05:55:00,67.9,66.0,0.00,ESE,112,8.0,9.0,93,0.00,,,0.00,weatherlink.com 1.10,2013-01-17 11:55:00,
2013-01-17 06:11:00,68.0,66.0,0.00,East,100,6.0,8.0,93,0.00,,,0.00,weatherlink.com 1.10,2013-01-17 12:11:00,
2013-01-17 06:26:00,68.0,66.0,0.00,ESE,113,5.0,8.0,93,0.00,,,0.00,weatherlink.com 1.10,2013-01-17 12:26:00,
2013-01-17 06:41:00,68.1,66.0,0.00,ESE,119,7.0,8.0,93,0.00,,,0.00,weatherlink.com 1.10,2013-01-17 12:41:00,
2013-01-17 06:56:00,68.8,66.0,0.00,East,101,7.0,8.0,92,0.00,,,0.00,weatherlink.com 1.10,2013-01-17 12:56:00,
2013-01-17 07:11:00,69.7,67.0,0.00,ESE,120,7.0,8.0,91,0.00,,,0.00,weatherlink.com 1.10,2013-01-17 13:11:00,
2013-01-17 07:26:00,70.5,68.0,0.00,ESE,123,5.0,8.0,90,0.00,,,0.00,weatherlink.com 1.10,2013-01-17 13:26:00,
2013-01-17 07:41:00,71.6,68.0,0.00,ESE,113,4.0,8.0,89,0.00,,,0.00,weatherlink.com 1.10,2013-01-17 13:41:00,
2013-01-17 07:56:00,72.8,69.0,0.00,SE,124,3.0,7.0,87,0.00,,,0.00,weatherlink.com 1.10,2013-01-17 13:56:00,
2013-01-17 08:11:00,74.2,70.0,0.00,ESE,102,7.0,9.0,85,0.00,,,0.00,weatherlink.com 1.10,2013-01-17 14:11:00,
2013-01-17 08:26:00,75.4,70.0,0.00,SE,126,5.0,10.0,84,0.00,,,0.00,weatherlink.com 1.10,2013-01-17 14:26:00,
2013-01-17 08:41:00,76.1,71.0,0.00,ESE,106,7.0,13.0,83,0.00,,,0.00,weatherlink.com 1.10,2013-01-17 14:41:00,
2013-01-17 08:56:00,76.4,71.0,0.00,ESE,103,11.0,15.0,82,0.00,,,0.00,weatherlink.com 1.10,2013-01-17 14:56:00,
2013-01-17 09:11:00,77.1,71.0,0.00,ESE,111,11.0,14.0,81,0.00,,,0.00,weatherlink.com 1.10,2013-01-17 15:11:00,
2013-01-17 09:26:00,77.9,71.0,0.00,ESE,120,7.0,14.0,79,0.00,,,0.00,weatherlink.com 1.10,2013-01-17 15:26:00,
2013-01-17 09:41:00,78.8,71.0,0.00,ESE,111,5.0,13.0,78,0.00,,,0.00,weatherlink.com 1.10,2013-01-17 15:41:00,
2013-01-17 09:57:00,79.4,71.0,0.00,East,84,10.0,13.0,76,0.00,,,0.00,weatherlink.com 1.10,2013-01-17 15:57:00,
2013-01-17 10:12:00,79.8,72.0,0.00,East,89,7.0,15.0,76,0.00,,,0.00,weatherlink.com 1.10,2013-01-17 16:12:00,
2013-01-17 10:27:00,79.0,71.0,0.00,SE,132,5.0,16.0,77,0.00,,,0.00,weatherlink.com 1.10,2013-01-17 16:27:00,
2013-01-17 10:42:00,79.7,72.0,0.00,SE,125,13.0,19.0,77,0.00,,,0.00,weatherlink.com 1.10,2013-01-17 16:42:00,
2013-01-17 10:57:00,79.0,71.0,0.00,SSE,157,7.0,21.0,76,0.00,,,0.00,weatherlink.com 1.10,2013-01-17 16:57:00,
2013-01-17 11:12:00,79.6,71.0,0.00,SE,134,13.0,21.0,75,0.00,,,0.00,weatherlink.com 1.10,2013-01-17 17:12:00,
2013-01-17 11:27:00,79.5,71.0,0.00,SE,134,12.0,21.0,76,0.00,,,0.00,weatherlink.com 1.10,2013-01-17 17:27:00,
2013-01-17 11:42:00,79.0,70.0,0.00,ESE,121,9.0,18.0,75,0.00,,,0.00,weatherlink.com 1.10,2013-01-17 17:42:00,
2013-01-17 11:57:00,78.1,70.0,0.00,ESE,121,9.0,21.0,77,0.00,,,0.00,weatherlink.com 1.10,2013-01-17 17:57:00,
2013-01-17 12:27:00,77.3,70.0,0.00,ESE,120,9.0,24.0,77,0.00,,,0.00,weatherlink.com 1.10,2013-01-17 18:27:00,
2013-01-17 12:42:00,78.2,70.0,0.00,SE,128,14.0,21.0,75,0.00,,,0.00,weatherlink.com 1.10,2013-01-17 18:42:00,
2013-01-17 12:57:00,77.8,69.0,0.00,ESE,120,11.0,21.0,75,0.00,,,0.00,weatherlink.com 1.10,2013-01-17 18:57:00,
2013-01-17 13:12:00,77.0,70.0,0.00,SE,130,18.0,26.0,78,0.00,,,0.00,weatherlink.com 1.10,2013-01-17 19:12:00,
2013-01-17 13:27:00,76.6,69.0,0.00,SSE,148,20.0,26.0,77,0.00,,,0.00,weatherlink.com 1.10,2013-01-17 19:27:00,
2013-01-17 13:43:00,76.0,69.0,0.00,ESE,123,13.0,24.0,79,0.00,,,0.00,weatherlink.com 1.10,2013-01-17 19:43:00,
2013-01-17 13:58:00,75.4,69.0,0.00,East,84,18.0,23.0,79,0.00,,,0.00,weatherlink.com 1.10,2013-01-17 19:58:00,
2013-01-17 14:13:00,75.4,68.0,0.00,SE,129,9.0,23.0,78,0.00,,,0.00,weatherlink.com 1.10,2013-01-17 20:13:00,
2013-01-17 14:28:00,73.7,68.0,0.00,SE,130,11.0,26.0,81,0.00,,,0.00,weatherlink.com 1.10,2013-01-17 20:28:00,
2013-01-17 14:43:00,72.8,67.0,0.00,SE,146,13.0,26.0,83,0.00,,,0.00,weatherlink.com 1.10,2013-01-17 20:43:00,
2013-01-17 14:58:00,71.9,67.0,0.00,SE,136,13.0,24.0,85,0.00,,,0.00,weatherlink.com 1.10,2013-01-17 20:58:00,
2013-01-17 15:13:00,71.3,67.0,0.00,ESE,120,11.0,19.0,87,0.00,,,0.00,weatherlink.com 1.10,2013-01-17 21:13:00,
2013-01-17 15:28:00,71.6,67.0,0.00,SE,145,10.0,23.0,84,0.00,,,0.00,weatherlink.com 1.10,2013-01-17 21:28:00,
2013-01-17 15:43:00,72.0,66.0,0.00,ESE,118,16.0,24.0,81,0.00,,,0.00,weatherlink.com 1.10,2013-01-17 21:43:00,
2013-01-17 15:58:00,72.0,66.0,0.00,SE,126,9.0,25.0,80,0.00,,,0.00,weatherlink.com 1.10,2013-01-17 21:58:00,
2013-01-17 16:28:00,71.5,65.0,0.00,SE,127,21.0,24.0,79,0.00,,,0.00,weatherlink.com 1.10,2013-01-17 22:28:00,
2013-01-17 16:43:00,71.4,65.0,0.00,ESE,121,8.0,18.0,79,0.00,,,0.00,weatherlink.com 1.10,2013-01-17 22:43:00,
2013-01-17 16:58:00,71.2,64.0,0.00,SE,144,9.0,23.0,79,0.00,,,0.00,weatherlink.com 1.10,2013-01-17 22:58:00,
2013-01-17 17:13:00,70.9,64.0,0.00,SE,127,14.0,23.0,79,0.00,,,0.00,weatherlink.com 1.10,2013-01-17 23:13:00,
2013-01-17 17:28:00,70.6,64.0,0.00,SE,126,12.0,21.0,79,0.00,,,0.00,weatherlink.com 1.10,2013-01-17 23:28:00,
2013-01-17 17:43:00,70.3,64.0,0.00,SE,127,14.0,24.0,80,0.00,,,0.00,weatherlink.com 1.10,2013-01-17 23:43:00,
2013-01-17 17:59:00,70.2,63.0,0.00,SE,140,6.0,18.0,79,0.00,,,0.00,weatherlink.com 1.10,2013-01-17 23:59:00,
2013-01-17 18:14:00,70.3,64.0,0.00,SE,134,10.0,16.0,79,0.00,,,0.00,weatherlink.com 1.10,2013-01-18 00:14:00,
2013-01-17 18:29:00,70.2,63.0,0.00,ESE,112,8.0,17.0,79,0.00,,,0.00,weatherlink.com 1.10,2013-01-18 00:29:00,
2013-01-17 18:44:00,70.1,63.0,0.00,SE,127,7.0,17.0,79,0.00,,,0.00,weatherlink.com 1.10,2013-01-18 00:44:00,
2013-01-17 18:59:00,70.1,63.0,0.00,ESE,116,12.0,17.0,79,0.00,,,0.00,weatherlink.com 1.10,2013-01-18 00:59:00,
2013-01-17 19:15:00,70.0,63.0,0.00,SE,141,7.0,18.0,79,0.00,,,0.00,weatherlink.com 1.10,2013-01-18 01:15:00,
2013-01-17 19:29:00,69.9,64.0,0.00,ESE,118,10.0,17.0,80,0.00,,,0.00,weatherlink.com 1.10,2013-01-18 01:29:00,
2013-01-17 19:44:00,69.9,64.0,0.00,SE,136,10.0,15.0,80,0.00,,,0.00,weatherlink.com 1.10,2013-01-18 01:44:00,
2013-01-17 19:59:00,69.8,63.0,0.00,SE,132,8.0,17.0,79,0.00,,,0.00,weatherlink.com 1.10,2013-01-18 01:59:00,
2013-01-17 20:14:00,69.7,63.0,0.00,ESE,115,9.0,14.0,79,0.00,,,0.00,weatherlink.com 1.10,2013-01-18 02:14:00,
2013-01-17 20:29:00,69.7,63.0,0.00,SE,136,6.0,14.0,79,0.00,,,0.00,weatherlink.com 1.10,2013-01-18 02:29:00,
2013-01-17 20:44:00,69.7,63.0,0.00,SE,136,5.0,12.0,79,0.00,,,0.00,weatherlink.com 1.10,2013-01-18 02:44:00,
2013-01-17 20:59:00,69.7,63.0,0.00,SE,129,6.0,15.0,79,0.00,,,0.00,weatherlink.com 1.10,2013-01-18 02:59:00,
2013-01-17 21:14:00,69.6,63.0,0.00,SE,128,5.0,12.0,80,0.00,,,0.00,weatherlink.com 1.10,2013-01-18 03:14:00,
2013-01-17 21:30:00,69.4,63.0,0.00,SE,127,3.0,11.0,80,0.00,,,0.00,weatherlink.com 1.10,2013-01-18 03:30:00,
2013-01-17 21:45:00,69.4,63.0,0.00,ESE,115,9.0,15.0,81,0.00,,,0.00,weatherlink.com 1.10,2013-01-18 03:45:00,
2013-01-17 22:00:00,69.4,63.0,0.00,SE,133,8.0,14.0,81,0.00,,,0.00,weatherlink.com 1.10,2013-01-18 04:00:00,
2013-01-17 22:15:00,69.4,63.0,0.00,SE,128,6.0,17.0,81,0.00,,,0.00,weatherlink.com 1.10,2013-01-18 04:15:00,
2013-01-17 22:30:00,69.3,64.0,0.00,SSE,158,6.0,16.0,82,0.00,,,0.00,weatherlink.com 1.10,2013-01-18 04:30:00,
2013-01-17 22:45:00,69.2,63.0,0.00,ESE,119,10.0,17.0,81,0.00,,,0.00,weatherlink.com 1.10,2013-01-18 04:45:00,
2013-01-17 23:15:00,69.1,63.0,0.00,SE,136,11.0,15.0,81,0.00,,,0.00,weatherlink.com 1.10,2013-01-18 05:15:00,
2013-01-17 23:30:00,69.2,63.0,0.00,SE,128,8.0,15.0,80,0.00,,,0.00,weatherlink.com 1.10,2013-01-18 05:30:00,
2013-01-17 23:45:00,69.2,63.0,0.00,SE,125,10.0,14.0,80,0.00,,,0.00,weatherlink.com 1.10,2013-01-18 05:45:00,